INFORMACIÓN METAR y TAF
METAR FOR LIPE
ADDS - METARS form results

(0222 UTC 25 June 2022)
Data provider http://aviationweather.gov/metar/data/
 
METAR text: LIPE 250150Z 22003KT CAVOK 20/13 Q1011
Conditions at: LIPE (BOLOGNA/BORGO (A, IT) observed 0150 UTC 25 June 2022
Temperature: 20.0°C (68°F)
Dewpoint: 13.0°C (55°F) [RH = 64%]
Pressure (altimeter): 29.85 inches Hg (1011.0 mb)
Winds: from the SW (220 degrees) at 3 MPH (3 knots; 1.5 m/s)
Visibility: 6 or more miles (10+ km)
Ceiling: ceiling and visibility are OK
Clouds: unknown
Weather: no significant weather observed at this time

Forecast for: LIPE (BOLOGNA/BORGO (A, IT)
Text: TAF LIPE 242300Z 2500/2524 21008KT CAVOK
Forecast period: 0000 UTC 25 June 2022 to 0000 UTC 26 June 2022
Forecast type: FROM: standard forecast or significant change
Winds: from the SSW (210 degrees) at 9 MPH (8 knots; 4.1 m/s)
Visibility: 6 or more miles (10+ km)
Ceiling: unknown
Clouds: missing
Weather: NSW  (no significant weather)
Text: PROB30
Forecast period: 1200 to 1500 UTC 25 June 2022
Forecast type: TEMPORARY: The following changes expected for less than half the time period
Visibility: missing
Ceiling: unknown
Clouds: missing
Weather: TSRA  (rain associated with thunderstorm(s))

 MAPA DE AEROPUERTO

 INFORMACIÓN DE PISTA